Mr. Roland — WDG6848 — position and weather

sailwx.info

Track history (hours):
 
Tides and Currents Weather Stations Pressure Air Temp Water Temp Dewpoint Dewpoint Depression Visibility Wind Speed Wind Dir Waves Ship Positions

Mr. Roland

Owner: T. K. TOWING, INC, MORGAN CITY, LA. More information available from US FCC via Universal Licensing System and Coast Guard Vessel Documentation Center.

Last reported at 2018-Jun-15 04:26 UTC. Time now 2018-Jun-19 20:00 UTC.
Position N 29°51' W 091°55'.

Length 20 m; draft 2 m.

Type: Other ship. MMSI: 367561320.

Date/timePositionNaut miles runAvg speedWind from/ knotsBaromVisibWave heightAir tempDewpointWater temp
2018-Jun-15 04:26N 29°51' W 091°55'2 4.3
2018-Jun-15 04:00N 29°51' W 091°57'2 4.0
2018-Jun-15 03:30N 29°50' W 091°59'2 4.3
2018-Jun-15 03:00N 29°49' W 092°01'2 3.9
2018-Jun-15 02:30N 29°49' W 092°03'2 3.9
2018-Jun-15 02:00N 29°48' W 092°06'2 3.9
2018-Jun-15 01:30N 29°47' W 092°08'2 4.0
2018-Jun-15 01:00N 29°47' W 092°10'2 4.1
2018-Jun-15 00:30N 29°47' W 092°12'1 2.2
2018-Jun-15 00:00N 29°48' W 092°13'0 0.2
2018-Jun-14 23:30N 29°48' W 092°13'1 1.3
2018-Jun-14 23:00N 29°48' W 092°14'2 4.0
2018-Jun-14 22:30N 29°49' W 092°16'2 3.7
2018-Jun-14 22:00N 29°50' W 092°18'2 3.7
2018-Jun-14 21:30N 29°50' W 092°20'3 3.6
2018-Jun-14 20:40N 29°52' W 092°23'1 3.6
2018-Jun-14 20:21N 29°53' W 092°24'1 3.8
2018-Jun-14 20:00N 29°53' W 092°25'2 3.9
2018-Jun-14 19:30N 29°54' W 092°27'32 3.2
2018-Jun-14 09:36N 29°56' W 093°04'0 3.3
2018-Jun-14 09:29N 29°56' W 093°04'2 3.4
2018-Jun-14 09:00N 29°56' W 093°06'2 3.1
2018-Jun-14 08:30N 29°56' W 093°08'1 2.6
2018-Jun-14 08:00N 29°56' W 093°09'2 3.2
2018-Jun-14 07:30N 29°57' W 093°11'2 3.0
2018-Jun-14 07:00N 29°58' W 093°12'1 2.8
2018-Jun-14 06:30N 29°59' W 093°13'2 3.1
2018-Jun-14 06:00N 30°01' W 093°14'1 2.5
2018-Jun-14 05:30N 30°02' W 093°15'1 2.5
2018-Jun-14 05:00N 30°03' W 093°16'1 2.6
2018-Jun-14 04:30N 30°04' W 093°16'1 2.9
2018-Jun-14 04:00N 30°05' W 093°17'1 1.2
2018-Jun-14 03:30N 30°05' W 093°18'1 1.3
2018-Jun-14 03:00N 30°06' W 093°18'0 1.0
2018-Jun-14 02:30N 30°06' W 093°19'0 0.8
2018-Jun-14 02:00N 30°06' W 093°19'0 0.0
2018-Jun-14 01:30N 30°06' W 093°19'0 0.0
2018-Jun-14 01:00N 30°06' W 093°19'0 0.0
2018-Jun-14 00:30N 30°06' W 093°19'0 0.0
2018-Jun-14 00:00N 30°06' W 093°19'0 0.0
2018-Jun-13 23:30N 30°06' W 093°19'0 0.0
2018-Jun-13 23:00N 30°06' W 093°19'0 0.0
2018-Jun-13 22:30N 30°06' W 093°19'0 0.0
2018-Jun-13 22:00N 30°06' W 093°19'0 0.0
2018-Jun-13 21:30N 30°06' W 093°19'0 0.0
2018-Jun-13 21:00N 30°06' W 093°19'0 0.0
2018-Jun-13 20:29N 30°06' W 093°19'0 0.0
2018-Jun-13 20:00N 30°06' W 093°19'0 0.0
2018-Jun-13 19:30N 30°06' W 093°19'0 0.0
2018-Jun-13 19:00N 30°06' W 093°19'0 0.0
2018-Jun-13 18:30N 30°06' W 093°19'0 0.0
2018-Jun-13 18:00N 30°06' W 093°19'0 0.0
2018-Jun-13 17:30N 30°06' W 093°19'0 0.0
2018-Jun-13 17:00N 30°06' W 093°19'0 0.0
2018-Jun-13 16:30N 30°06' W 093°19'0 0.0
2018-Jun-13 16:00N 30°06' W 093°19'0 0.0
2018-Jun-13 15:30N 30°06' W 093°19'0 0.0
2018-Jun-13 15:00N 30°06' W 093°19'0 0.0
2018-Jun-13 14:30N 30°06' W 093°19'0 0.0
2018-Jun-13 14:00N 30°06' W 093°19'0 0.0
2018-Jun-13 13:30N 30°06' W 093°19'0 0.0
2018-Jun-13 13:00N 30°06' W 093°19'0 0.0
2018-Jun-13 12:30N 30°06' W 093°19'0 0.0
2018-Jun-13 12:00N 30°06' W 093°19'0 0.0
2018-Jun-13 11:30N 30°06' W 093°19'0 0.0
2018-Jun-13 11:00N 30°06' W 093°19'0 0.2
2018-Jun-13 10:29N 30°06' W 093°19'0 0.2
2018-Jun-13 10:00N 30°06' W 093°19'0 0.0
2018-Jun-13 09:30N 30°06' W 093°19'0 0.0
2018-Jun-13 09:00N 30°06' W 093°19'0 0.0
2018-Jun-13 08:29N 30°06' W 093°19'0 0.0
2018-Jun-13 07:59N 30°06' W 093°19'0 0.0
2018-Jun-13 07:28N 30°06' W 093°19'0 0.0
2018-Jun-13 07:00N 30°06' W 093°19'0 0.0
2018-Jun-13 06:30N 30°06' W 093°19'0 0.0
2018-Jun-13 06:00N 30°06' W 093°19'0 0.0
2018-Jun-13 05:29N 30°06' W 093°19'0 0.0
2018-Jun-13 05:00N 30°06' W 093°19'0 0.0
2018-Jun-13 04:30N 30°06' W 093°19'0 0.0
2018-Jun-13 04:00N 30°06' W 093°19'0 0.0
2018-Jun-13 03:29N 30°06' W 093°19'0 0.0
2018-Jun-13 03:00N 30°06' W 093°19'0 0.0
2018-Jun-13 02:30N 30°06' W 093°19'0 0.2
2018-Jun-13 02:00N 30°06' W 093°19'1 1.2
2018-Jun-13 01:30N 30°06' W 093°20'1 2.3
2018-Jun-13 01:00N 30°07' W 093°20'2 4.4
2018-Jun-13 00:29N 30°09' W 093°20'2 4.3
2018-Jun-13 00:00N 30°11' W 093°18'2 4.6
2018-Jun-12 23:30N 30°12' W 093°16'1 2.9
2018-Jun-12 23:00N 30°13' W 093°15'1 2.6
2018-Jun-12 22:30N 30°14' W 093°15'0 0.7
2018-Jun-12 22:00N 30°15' W 093°15'1 2.8
2018-Jun-12 21:30N 30°13' W 093°14'1 2.2
2018-Jun-12 21:00N 30°13' W 093°15'0 0.0
2018-Jun-12 20:30N 30°13' W 093°15'0 0.0
2018-Jun-12 20:00N 30°13' W 093°15'0 0.0
2018-Jun-12 19:30N 30°13' W 093°15'0 0.0
2018-Jun-12 19:00N 30°13' W 093°15'0 0.0
2018-Jun-12 18:30N 30°13' W 093°15'0 0.0
2018-Jun-12 18:00N 30°13' W 093°15'0 0.0
2018-Jun-12 17:30N 30°13' W 093°15'0 0.0
2018-Jun-12 17:00N 30°13' W 093°15'1 2.1
2018-Jun-12 16:30N 30°14' W 093°16'1 1.6
2018-Jun-12 16:00N 30°13' W 093°16'0 0.5
2018-Jun-12 15:30N 30°13' W 093°15'0 0.5
2018-Jun-12 15:00N 30°13' W 093°15'0 0.1
2018-Jun-12 14:30N 30°13' W 093°15'1 1.6
2018-Jun-12 14:00N 30°13' W 093°15'2 3.3
2018-Jun-12 13:30N 30°15' W 093°15'0 0.6
2018-Jun-12 13:00N 30°15' W 093°15'1 2.1
2018-Jun-12 12:30N 30°14' W 093°15'1 2.1
2018-Jun-12 12:00N 30°13' W 093°16'1 1.0
2018-Jun-12 11:30N 30°13' W 093°15'0 0.4
2018-Jun-12 11:00N 30°13' W 093°15'1 2.1
2018-Jun-12 10:30N 30°14' W 093°16'0 0.2
2018-Jun-12 10:00N 30°14' W 093°16'0 0.0
2018-Jun-12 09:30N 30°14' W 093°16'0 0.0
2018-Jun-12 08:59N 30°14' W 093°16'0 0.0
2018-Jun-12 08:30N 30°14' W 093°16'0 0.0
2018-Jun-12 08:00N 30°14' W 093°16'0 0.0
2018-Jun-12 07:30N 30°14' W 093°16'0 0.0
2018-Jun-12 07:00N 30°14' W 093°16'0 0.0
2018-Jun-12 06:30N 30°14' W 093°16'0 0.0
2018-Jun-12 06:00N 30°14' W 093°16'0 0.0
2018-Jun-12 05:30N 30°14' W 093°16'0 0.0
2018-Jun-12 05:00N 30°14' W 093°16'0 0.0
2018-Jun-12 04:31N 30°14' W 093°16'0 0.0
2018-Jun-12 04:00N 30°14' W 093°16'0 0.0
2018-Jun-12 03:30N 30°14' W 093°16'0 0.0
2018-Jun-12 03:00N 30°14' W 093°16'0 0.0
2018-Jun-12 02:28N 30°14' W 093°16'0 0.0
2018-Jun-12 02:00N 30°14' W 093°16'0 0.0
2018-Jun-12 01:30N 30°14' W 093°16'0 0.0
2018-Jun-12 01:00N 30°14' W 093°16'0 0.0
2018-Jun-12 00:30N 30°14' W 093°16'0 0.0
2018-Jun-12 00:00N 30°14' W 093°16'0 0.0
2018-Jun-11 23:30N 30°14' W 093°16'0 0.0
2018-Jun-11 23:00N 30°14' W 093°16'0 0.2
2018-Jun-11 22:30N 30°14' W 093°16'0 0.3
2018-Jun-11 22:00N 30°14' W 093°16'0 0.0
2018-Jun-11 21:30N 30°14' W 093°16'0 0.0
2018-Jun-11 21:00N 30°14' W 093°16'0 0.0
2018-Jun-11 20:30N 30°14' W 093°16'0 0.0
2018-Jun-11 20:00N 30°14' W 093°16'0 0.0
2018-Jun-11 19:30N 30°14' W 093°16'0 0.0
2018-Jun-11 19:00N 30°14' W 093°16'0 0.0
2018-Jun-11 18:30N 30°14' W 093°16'0 0.0
2018-Jun-11 18:00N 30°14' W 093°16'0 0.0
2018-Jun-11 17:30N 30°14' W 093°16'0 0.0
2018-Jun-11 16:59N 30°14' W 093°16'0 0.0
2018-Jun-11 16:30N 30°14' W 093°16'0 0.0
2018-Jun-11 16:00N 30°14' W 093°16'0 0.0
2018-Jun-11 15:30N 30°14' W 093°16'0 0.0
2018-Jun-11 15:00N 30°14' W 093°16'1 1.1
2018-Jun-11 14:30N 30°13' W 093°16'2 3.9
2018-Jun-11 14:00N 30°12' W 093°18'3 5.7
2018-Jun-11 13:30N 30°09' W 093°20'3 5.4
2018-Jun-11 13:00N 30°07' W 093°20'1 2.4
2018-Jun-11 12:30N 30°06' W 093°19'0 0.0
2018-Jun-11 12:01N 30°06' W 093°19'0 0.0
2018-Jun-11 11:30N 30°06' W 093°19'0 0.2
2018-Jun-11 11:00N 30°06' W 093°19'0 0.5
2018-Jun-11 10:30N 30°06' W 093°19'0 0.0
2018-Jun-11 10:00N 30°06' W 093°19'0 0.0
2018-Jun-11 09:30N 30°06' W 093°19'0 0.0
2018-Jun-11 09:00N 30°06' W 093°19'0 0.0
2018-Jun-11 08:30N 30°06' W 093°19'0 0.0
2018-Jun-11 08:00N 30°06' W 093°19'0 0.7
2018-Jun-11 07:30N 30°06' W 093°19'1 2.6
2018-Jun-11 07:00N 30°05' W 093°18'1 1.4
2018-Jun-11 06:30N 30°05' W 093°17'1 1.8
2018-Jun-11 06:00N 30°04' W 093°16'0 0.8
2018-Jun-11 05:30N 30°04' W 093°16'0 0.0
2018-Jun-11 05:00N 30°04' W 093°16'0 0.0
2018-Jun-11 04:30N 30°04' W 093°16'0 0.0
2018-Jun-11 04:00N 30°04' W 093°16'0 0.0
2018-Jun-11 03:30N 30°04' W 093°16'0 0.0
2018-Jun-11 03:00N 30°04' W 093°16'0 0.0
2018-Jun-11 02:30N 30°04' W 093°16'0 0.0
2018-Jun-11 02:00N 30°04' W 093°16'1 2.5
2018-Jun-11 01:30N 30°03' W 093°16'0 0.1
2018-Jun-11 01:00N 30°03' W 093°16'0 0.0
2018-Jun-11 00:29N 30°03' W 093°16'0 0.0
2018-Jun-11 00:00N 30°03' W 093°16'0 0.0
2018-Jun-10 23:30N 30°03' W 093°16'0 0.0
2018-Jun-10 23:00N 30°03' W 093°16'0 0.0
2018-Jun-10 22:30N 30°03' W 093°16'0 0.0
2018-Jun-10 21:59N 30°03' W 093°16'0 0.0
2018-Jun-10 21:30N 30°03' W 093°16'0 0.0
2018-Jun-10 20:59N 30°03' W 093°16'0 0.0
2018-Jun-10 20:30N 30°03' W 093°16'0 0.0
2018-Jun-10 20:00N 30°03' W 093°16'0 0.0
2018-Jun-10 19:30N 30°03' W 093°16'2 3.1
2018-Jun-10 19:00N 30°02' W 093°14'2 3.5
2018-Jun-10 18:30N 30°00' W 093°14'3 5.5
2018-Jun-10 18:00N 29°58' W 093°11'3 5.4
2018-Jun-10 17:30N 29°56' W 093°09'3 5.5
2018-Jun-10 16:58N 29°56' W 093°06'3 5.5
2018-Jun-10 16:28N 29°56' W 093°03'3 5.5
2018-Jun-10 15:59N 29°56' W 092°60'29 3.8
2018-Jun-10 08:16N 29°53' W 092°26'2 3.5
2018-Jun-10 07:50N 29°53' W 092°25'0 0.2
2018-Jun-10 07:30N 29°53' W 092°25'3 4.0
2018-Jun-10 06:41N 29°51' W 092°22'1 4.9
2018-Jun-10 06:30N 29°51' W 092°21'2 4.9
2018-Jun-10 06:00N 29°50' W 092°18'1 2.6
2018-Jun-10 05:30N 29°49' W 092°17'1 2.8
2018-Jun-10 05:00N 29°48' W 092°16'2 4.2
2018-Jun-10 04:30N 29°48' W 092°14'1 2.2
2018-Jun-10 04:00N 29°47' W 092°12'1 1.4
2018-Jun-10 03:30N 29°47' W 092°12'0 0.9
2018-Jun-10 03:00N 29°47' W 092°11'0 0.0
2018-Jun-10 02:30N 29°47' W 092°11'0 0.0
2018-Jun-10 02:00N 29°47' W 092°11'0 0.0
2018-Jun-10 01:30N 29°47' W 092°11'0 0.0
2018-Jun-10 01:00N 29°47' W 092°11'0 0.0
2018-Jun-10 00:30N 29°47' W 092°11'0 0.0
2018-Jun-10 00:00N 29°47' W 092°11'1 2.1
2018-Jun-09 23:30N 29°47' W 092°10'2 3.9
2018-Jun-09 23:01N 29°47' W 092°08'1 2.8
2018-Jun-09 22:30N 29°48' W 092°06'2 3.5
2018-Jun-09 22:01N 29°48' W 092°04'3 5.4
2018-Jun-09 21:30N 29°49' W 092°02'4 4.5
2018-Jun-09 20:34N 29°51' W 091°57'  
2018-Jun-07 08:33N 31°57' W 091°12'1 9.8
2018-Jun-07 08:29N 31°57' W 091°11'7 7.7
2018-Jun-07 07:37N 32°01' W 091°05'1 8.7
2018-Jun-07 07:30N 32°02' W 091°04'4 7.4
2018-Jun-07 07:00N 32°05' W 091°05'3 4.9
2018-Jun-07 06:28N 32°08' W 091°04'3 7.3
2018-Jun-07 06:00N 32°09' W 091°00'4 8.4
2018-Jun-07 05:30N 32°13' W 090°59'4 8.1
2018-Jun-07 05:00N 32°16' W 090°57'4 8.3
2018-Jun-07 04:30N 32°20' W 090°54'3 5.5
2018-Jun-07 04:00N 32°22' W 090°53'2 4.3
2018-Jun-07 03:30N 32°23' W 090°55'0 0.6
2018-Jun-07 03:00N 32°24' W 090°55'0 0.0
2018-Jun-07 02:26N 32°24' W 090°55'0 0.1
2018-Jun-07 02:00N 32°23' W 090°55'0 0.0
2018-Jun-07 01:30N 32°24' W 090°55'0 0.0
2018-Jun-07 01:00N 32°24' W 090°55'0 0.0
2018-Jun-07 00:30N 32°24' W 090°55'0 0.0
2018-Jun-07 00:00N 32°24' W 090°55'0 0.0
2018-Jun-06 23:30N 32°24' W 090°55'0 0.0
2018-Jun-06 23:00N 32°24' W 090°55'0 0.0
2018-Jun-06 22:30N 32°23' W 090°55'0 0.0
2018-Jun-06 22:00N 32°24' W 090°55'0 0.0
2018-Jun-06 21:30N 32°24' W 090°55'0 0.0
2018-Jun-06 21:00N 32°24' W 090°55'0 0.0
2018-Jun-06 20:30N 32°24' W 090°55'0 0.0
2018-Jun-06 20:00N 32°24' W 090°55'0 0.0
2018-Jun-06 19:30N 32°24' W 090°55'0 0.0
2018-Jun-06 19:00N 32°24' W 090°55'0 0.0
2018-Jun-06 18:30N 32°24' W 090°55'0 0.0
2018-Jun-06 18:00N 32°24' W 090°55'0 0.0
2018-Jun-06 17:30N 32°24' W 090°55'0 0.0
2018-Jun-06 17:00N 32°24' W 090°55'0 0.0
2018-Jun-06 16:24N 32°24' W 090°55'0 0.0
2018-Jun-06 16:00N 32°24' W 090°55'0 0.0
2018-Jun-06 15:30N 32°24' W 090°55'0 0.0
2018-Jun-06 14:58N 32°24' W 090°55'0 0.0
2018-Jun-06 14:30N 32°24' W 090°55'0 0.0
2018-Jun-06 13:58N 32°23' W 090°55'0 0.0
2018-Jun-06 13:30N 32°24' W 090°55'0 0.0
2018-Jun-06 13:00N 32°24' W 090°55'0 0.0
2018-Jun-06 12:30N 32°24' W 090°55'0 0.0
2018-Jun-06 12:00N 32°24' W 090°55'0 0.0
2018-Jun-06 11:30N 32°24' W 090°55'0 0.0
2018-Jun-06 11:00N 32°24' W 090°55'0 0.0
2018-Jun-06 10:30N 32°24' W 090°55'0 0.0
2018-Jun-06 10:00N 32°24' W 090°55'0 0.0
2018-Jun-06 09:30N 32°24' W 090°55'0 0.0
2018-Jun-06 09:00N 32°24' W 090°55'0 0.0
2018-Jun-06 08:30N 32°24' W 090°55'0 0.0
2018-Jun-06 07:55N 32°24' W 090°55'0 0.0
2018-Jun-06 07:30N 32°23' W 090°55'0 0.0
2018-Jun-06 07:00N 32°24' W 090°55'0 0.0
2018-Jun-06 06:30N 32°24' W 090°55'0 0.0
2018-Jun-06 06:00N 32°24' W 090°55'0 0.0
2018-Jun-06 05:30N 32°23' W 090°55'0 0.0
2018-Jun-06 05:00N 32°24' W 090°55'0 0.0
2018-Jun-06 04:30N 32°24' W 090°55'0 0.0
2018-Jun-06 04:00N 32°24' W 090°55'0 0.0
2018-Jun-06 03:30N 32°24' W 090°55'0 0.0
2018-Jun-06 02:58N 32°24' W 090°55'0 0.0
2018-Jun-06 02:30N 32°23' W 090°55'0 0.0
2018-Jun-06 01:59N 32°24' W 090°55'0 0.0
2018-Jun-06 01:30N 32°24' W 090°55'0 0.0
2018-Jun-06 01:00N 32°24' W 090°55'0 0.0
2018-Jun-06 00:28N 32°24' W 090°55'0 0.0
2018-Jun-06 00:00N 32°24' W 090°55'0 0.0
2018-Jun-05 23:30N 32°24' W 090°55'0 0.0
2018-Jun-05 23:00N 32°24' W 090°55'0 0.0
2018-Jun-05 22:30N 32°23' W 090°55'0 0.0
2018-Jun-05 22:00N 32°24' W 090°55'0 0.0
2018-Jun-05 21:30N 32°24' W 090°55'0 0.0
2018-Jun-05 21:00N 32°24' W 090°55'0 0.0
2018-Jun-05 20:30N 32°24' W 090°55'0 0.0
2018-Jun-05 20:00N 32°24' W 090°55'0 0.0
2018-Jun-05 19:30N 32°24' W 090°55'0 0.0
2018-Jun-05 19:00N 32°24' W 090°55'0 0.0
2018-Jun-05 18:30N 32°24' W 090°55'0 0.0
2018-Jun-05 18:00N 32°23' W 090°55'0 0.0
2018-Jun-05 17:30N 32°24' W 090°55'0 0.0
2018-Jun-05 17:00N 32°23' W 090°55'0 0.0
2018-Jun-05 16:30N 32°23' W 090°55'0 0.0
2018-Jun-05 16:00N 32°24' W 090°55'0 0.1
2018-Jun-05 15:30N 32°23' W 090°55'0 0.0
2018-Jun-05 15:00N 32°23' W 090°55'0 0.0
2018-Jun-05 14:30N 32°23' W 090°55'0 0.0
2018-Jun-05 14:00N 32°23' W 090°55'0 0.0
2018-Jun-05 13:30N 32°23' W 090°55'0 0.0
2018-Jun-05 13:00N 32°23' W 090°55'0 0.0
2018-Jun-05 12:30N 32°23' W 090°55'0 0.0
2018-Jun-05 12:00N 32°23' W 090°55'0 0.0
2018-Jun-05 11:30N 32°23' W 090°55'0 0.0
2018-Jun-05 11:00N 32°23' W 090°55'0 0.0
2018-Jun-05 10:30N 32°23' W 090°55'0 0.0
2018-Jun-05 10:00N 32°23' W 090°55'0 0.0
2018-Jun-05 09:30N 32°23' W 090°55'0 0.0
2018-Jun-05 09:00N 32°23' W 090°55'0 0.0
2018-Jun-05 08:30N 32°23' W 090°55'0 0.0
2018-Jun-05 08:00N 32°23' W 090°55'0 0.0
2018-Jun-05 07:30N 32°23' W 090°55'0 0.0
2018-Jun-05 07:00N 32°23' W 090°55'0 0.0
2018-Jun-05 06:30N 32°24' W 090°55'0 0.0
2018-Jun-05 06:00N 32°24' W 090°55'0 0.0
2018-Jun-05 05:30N 32°24' W 090°55'0 0.0
2018-Jun-05 05:00N 32°23' W 090°55'0 0.0
2018-Jun-05 04:30N 32°23' W 090°55'  
Track history (hours):
 
Tides and Currents Weather Stations Pressure Air Temp Water Temp Dewpoint Dewpoint Depression Visibility Wind Speed Wind Dir Waves Ship Positions

Mr. Roland

Owner: T. K. TOWING, INC, MORGAN CITY, LA. More information available from US FCC via Universal Licensing System and Coast Guard Vessel Documentation Center.

Last reported at 2018-Jun-15 04:26 UTC. Time now 2018-Jun-19 20:00 UTC.
Position N 29°51' W 091°55'.

Length 20 m; draft 2 m.

Type: Other ship. MMSI: 367561320.

Date/timePositionNaut miles runAvg speedWind from/ knotsBaromVisibWave heightAir tempDewpointWater temp
2018-Jun-15 04:26N 29°51' W 091°55'2 4.3
2018-Jun-15 04:00N 29°51' W 091°57'2 4.0
2018-Jun-15 03:30N 29°50' W 091°59'2 4.3
2018-Jun-15 03:00N 29°49' W 092°01'2 3.9
2018-Jun-15 02:30N 29°49' W 092°03'2 3.9
2018-Jun-15 02:00N 29°48' W 092°06'2 3.9
2018-Jun-15 01:30N 29°47' W 092°08'2 4.0
2018-Jun-15 01:00N 29°47' W 092°10'2 4.1
2018-Jun-15 00:30N 29°47' W 092°12'1 2.2
2018-Jun-15 00:00N 29°48' W 092°13'0 0.2
2018-Jun-14 23:30N 29°48' W 092°13'1 1.3
2018-Jun-14 23:00N 29°48' W 092°14'2 4.0
2018-Jun-14 22:30N 29°49' W 092°16'2 3.7
2018-Jun-14 22:00N 29°50' W 092°18'2 3.7
2018-Jun-14 21:30N 29°50' W 092°20'3 3.6
2018-Jun-14 20:40N 29°52' W 092°23'1 3.6
2018-Jun-14 20:21N 29°53' W 092°24'1 3.8
2018-Jun-14 20:00N 29°53' W 092°25'2 3.9
2018-Jun-14 19:30N 29°54' W 092°27'32 3.2
2018-Jun-14 09:36N 29°56' W 093°04'0 3.3
2018-Jun-14 09:29N 29°56' W 093°04'2 3.4
2018-Jun-14 09:00N 29°56' W 093°06'2 3.1
2018-Jun-14 08:30N 29°56' W 093°08'1 2.6
2018-Jun-14 08:00N 29°56' W 093°09'2 3.2
2018-Jun-14 07:30N 29°57' W 093°11'2 3.0
2018-Jun-14 07:00N 29°58' W 093°12'1 2.8
2018-Jun-14 06:30N 29°59' W 093°13'2 3.1
2018-Jun-14 06:00N 30°01' W 093°14'1 2.5
2018-Jun-14 05:30N 30°02' W 093°15'1 2.5
2018-Jun-14 05:00N 30°03' W 093°16'1 2.6
2018-Jun-14 04:30N 30°04' W 093°16'1 2.9
2018-Jun-14 04:00N 30°05' W 093°17'1 1.2
2018-Jun-14 03:30N 30°05' W 093°18'1 1.3
2018-Jun-14 03:00N 30°06' W 093°18'0 1.0
2018-Jun-14 02:30N 30°06' W 093°19'0 0.8
2018-Jun-14 02:00N 30°06' W 093°19'0 0.0
2018-Jun-14 01:30N 30°06' W 093°19'0 0.0
2018-Jun-14 01:00N 30°06' W 093°19'0 0.0
2018-Jun-14 00:30N 30°06' W 093°19'0 0.0
2018-Jun-14 00:00N 30°06' W 093°19'0 0.0
2018-Jun-13 23:30N 30°06' W 093°19'0 0.0
2018-Jun-13 23:00N 30°06' W 093°19'0 0.0
2018-Jun-13 22:30N 30°06' W 093°19'0 0.0
2018-Jun-13 22:00N 30°06' W 093°19'0 0.0
2018-Jun-13 21:30N 30°06' W 093°19'0 0.0
2018-Jun-13 21:00N 30°06' W 093°19'0 0.0
2018-Jun-13 20:29N 30°06' W 093°19'0 0.0
2018-Jun-13 20:00N 30°06' W 093°19'0 0.0
2018-Jun-13 19:30N 30°06' W 093°19'0 0.0
2018-Jun-13 19:00N 30°06' W 093°19'0 0.0
2018-Jun-13 18:30N 30°06' W 093°19'0 0.0
2018-Jun-13 18:00N 30°06' W 093°19'0 0.0
2018-Jun-13 17:30N 30°06' W 093°19'0 0.0
2018-Jun-13 17:00N 30°06' W 093°19'0 0.0
2018-Jun-13 16:30N 30°06' W 093°19'0 0.0
2018-Jun-13 16:00N 30°06' W 093°19'0 0.0
2018-Jun-13 15:30N 30°06' W 093°19'0 0.0
2018-Jun-13 15:00N 30°06' W 093°19'0 0.0
2018-Jun-13 14:30N 30°06' W 093°19'0 0.0
2018-Jun-13 14:00N 30°06' W 093°19'0 0.0
2018-Jun-13 13:30N 30°06' W 093°19'0 0.0
2018-Jun-13 13:00N 30°06' W 093°19'0 0.0
2018-Jun-13 12:30N 30°06' W 093°19'0 0.0
2018-Jun-13 12:00N 30°06' W 093°19'0 0.0
2018-Jun-13 11:30N 30°06' W 093°19'0 0.0
2018-Jun-13 11:00N 30°06' W 093°19'0 0.2
2018-Jun-13 10:29N 30°06' W 093°19'0 0.2
2018-Jun-13 10:00N 30°06' W 093°19'0 0.0
2018-Jun-13 09:30N 30°06' W 093°19'0 0.0
2018-Jun-13 09:00N 30°06' W 093°19'0 0.0
2018-Jun-13 08:29N 30°06' W 093°19'0 0.0
2018-Jun-13 07:59N 30°06' W 093°19'0 0.0
2018-Jun-13 07:28N 30°06' W 093°19'0 0.0
2018-Jun-13 07:00N 30°06' W 093°19'0 0.0
2018-Jun-13 06:30N 30°06' W 093°19'0 0.0
2018-Jun-13 06:00N 30°06' W 093°19'0 0.0
2018-Jun-13 05:29N 30°06' W 093°19'0 0.0
2018-Jun-13 05:00N 30°06' W 093°19'0 0.0
2018-Jun-13 04:30N 30°06' W 093°19'0 0.0
2018-Jun-13 04:00N 30°06' W 093°19'0 0.0
2018-Jun-13 03:29N 30°06' W 093°19'0 0.0
2018-Jun-13 03:00N 30°06' W 093°19'0 0.0
2018-Jun-13 02:30N 30°06' W 093°19'0 0.2
2018-Jun-13 02:00N 30°06' W 093°19'1 1.2
2018-Jun-13 01:30N 30°06' W 093°20'1 2.3
2018-Jun-13 01:00N 30°07' W 093°20'2 4.4
2018-Jun-13 00:29N 30°09' W 093°20'2 4.3
2018-Jun-13 00:00N 30°11' W 093°18'2 4.6
2018-Jun-12 23:30N 30°12' W 093°16'1 2.9
2018-Jun-12 23:00N 30°13' W 093°15'1 2.6
2018-Jun-12 22:30N 30°14' W 093°15'0 0.7
2018-Jun-12 22:00N 30°15' W 093°15'1 2.8
2018-Jun-12 21:30N 30°13' W 093°14'1 2.2
2018-Jun-12 21:00N 30°13' W 093°15'0 0.0
2018-Jun-12 20:30N 30°13' W 093°15'0 0.0
2018-Jun-12 20:00N 30°13' W 093°15'0 0.0
2018-Jun-12 19:30N 30°13' W 093°15'0 0.0
2018-Jun-12 19:00N 30°13' W 093°15'0 0.0
2018-Jun-12 18:30N 30°13' W 093°15'0 0.0
2018-Jun-12 18:00N 30°13' W 093°15'0 0.0
2018-Jun-12 17:30N 30°13' W 093°15'0 0.0
2018-Jun-12 17:00N 30°13' W 093°15'1 2.1
2018-Jun-12 16:30N 30°14' W 093°16'1 1.6
2018-Jun-12 16:00N 30°13' W 093°16'0 0.5
2018-Jun-12 15:30N 30°13' W 093°15'0 0.5
2018-Jun-12 15:00N 30°13' W 093°15'0 0.1
2018-Jun-12 14:30N 30°13' W 093°15'1 1.6
2018-Jun-12 14:00N 30°13' W 093°15'2 3.3
2018-Jun-12 13:30N 30°15' W 093°15'0 0.6
2018-Jun-12 13:00N 30°15' W 093°15'1 2.1
2018-Jun-12 12:30N 30°14' W 093°15'1 2.1
2018-Jun-12 12:00N 30°13' W 093°16'1 1.0
2018-Jun-12 11:30N 30°13' W 093°15'0 0.4
2018-Jun-12 11:00N 30°13' W 093°15'1 2.1
2018-Jun-12 10:30N 30°14' W 093°16'0 0.2
2018-Jun-12 10:00N 30°14' W 093°16'0 0.0
2018-Jun-12 09:30N 30°14' W 093°16'0 0.0
2018-Jun-12 08:59N 30°14' W 093°16'0 0.0
2018-Jun-12 08:30N 30°14' W 093°16'0 0.0
2018-Jun-12 08:00N 30°14' W 093°16'0 0.0
2018-Jun-12 07:30N 30°14' W 093°16'0 0.0
2018-Jun-12 07:00N 30°14' W 093°16'0 0.0
2018-Jun-12 06:30N 30°14' W 093°16'0 0.0
2018-Jun-12 06:00N 30°14' W 093°16'0 0.0
2018-Jun-12 05:30N 30°14' W 093°16'0 0.0
2018-Jun-12 05:00N 30°14' W 093°16'0 0.0
2018-Jun-12 04:31N 30°14' W 093°16'0 0.0
2018-Jun-12 04:00N 30°14' W 093°16'0 0.0
2018-Jun-12 03:30N 30°14' W 093°16'0 0.0
2018-Jun-12 03:00N 30°14' W 093°16'0 0.0
2018-Jun-12 02:28N 30°14' W 093°16'0 0.0
2018-Jun-12 02:00N 30°14' W 093°16'0 0.0
2018-Jun-12 01:30N 30°14' W 093°16'0 0.0
2018-Jun-12 01:00N 30°14' W 093°16'0 0.0
2018-Jun-12 00:30N 30°14' W 093°16'0 0.0
2018-Jun-12 00:00N 30°14' W 093°16'0 0.0
2018-Jun-11 23:30N 30°14' W 093°16'0 0.0
2018-Jun-11 23:00N 30°14' W 093°16'0 0.2
2018-Jun-11 22:30N 30°14' W 093°16'0 0.3
2018-Jun-11 22:00N 30°14' W 093°16'0 0.0
2018-Jun-11 21:30N 30°14' W 093°16'0 0.0
2018-Jun-11 21:00N 30°14' W 093°16'0 0.0
2018-Jun-11 20:30N 30°14' W 093°16'0 0.0
2018-Jun-11 20:00N 30°14' W 093°16'0 0.0
2018-Jun-11 19:30N 30°14' W 093°16'0 0.0
2018-Jun-11 19:00N 30°14' W 093°16'0 0.0
2018-Jun-11 18:30N 30°14' W 093°16'0 0.0
2018-Jun-11 18:00N 30°14' W 093°16'0 0.0
2018-Jun-11 17:30N 30°14' W 093°16'0 0.0
2018-Jun-11 16:59N 30°14' W 093°16'0 0.0
2018-Jun-11 16:30N 30°14' W 093°16'0 0.0
2018-Jun-11 16:00N 30°14' W 093°16'0 0.0
2018-Jun-11 15:30N 30°14' W 093°16'0 0.0
2018-Jun-11 15:00N 30°14' W 093°16'1 1.1
2018-Jun-11 14:30N 30°13' W 093°16'2 3.9
2018-Jun-11 14:00N 30°12' W 093°18'3 5.7
2018-Jun-11 13:30N 30°09' W 093°20'3 5.4
2018-Jun-11 13:00N 30°07' W 093°20'1 2.4
2018-Jun-11 12:30N 30°06' W 093°19'0 0.0
2018-Jun-11 12:01N 30°06' W 093°19'0 0.0
2018-Jun-11 11:30N 30°06' W 093°19'0 0.2
2018-Jun-11 11:00N 30°06' W 093°19'0 0.5
2018-Jun-11 10:30N 30°06' W 093°19'0 0.0
2018-Jun-11 10:00N 30°06' W 093°19'0 0.0
2018-Jun-11 09:30N 30°06' W 093°19'0 0.0
2018-Jun-11 09:00N 30°06' W 093°19'0 0.0
2018-Jun-11 08:30N 30°06' W 093°19'0 0.0
2018-Jun-11 08:00N 30°06' W 093°19'0 0.7
2018-Jun-11 07:30N 30°06' W 093°19'1 2.6
2018-Jun-11 07:00N 30°05' W 093°18'1 1.4
2018-Jun-11 06:30N 30°05' W 093°17'1 1.8
2018-Jun-11 06:00N 30°04' W 093°16'0 0.8
2018-Jun-11 05:30N 30°04' W 093°16'0 0.0
2018-Jun-11 05:00N 30°04' W 093°16'0 0.0
2018-Jun-11 04:30N 30°04' W 093°16'0 0.0
2018-Jun-11 04:00N 30°04' W 093°16'0 0.0
2018-Jun-11 03:30N 30°04' W 093°16'0 0.0
2018-Jun-11 03:00N 30°04' W 093°16'0 0.0
2018-Jun-11 02:30N 30°04' W 093°16'0 0.0
2018-Jun-11 02:00N 30°04' W 093°16'1 2.5
2018-Jun-11 01:30N 30°03' W 093°16'0 0.1
2018-Jun-11 01:00N 30°03' W 093°16'0 0.0
2018-Jun-11 00:29N 30°03' W 093°16'0 0.0
2018-Jun-11 00:00N 30°03' W 093°16'0 0.0
2018-Jun-10 23:30N 30°03' W 093°16'0 0.0
2018-Jun-10 23:00N 30°03' W 093°16'0 0.0
2018-Jun-10 22:30N 30°03' W 093°16'0 0.0
2018-Jun-10 21:59N 30°03' W 093°16'0 0.0
2018-Jun-10 21:30N 30°03' W 093°16'0 0.0
2018-Jun-10 20:59N 30°03' W 093°16'0 0.0
2018-Jun-10 20:30N 30°03' W 093°16'0 0.0
2018-Jun-10 20:00N 30°03' W 093°16'0 0.0
2018-Jun-10 19:30N 30°03' W 093°16'2 3.1
2018-Jun-10 19:00N 30°02' W 093°14'2 3.5
2018-Jun-10 18:30N 30°00' W 093°14'3 5.5
2018-Jun-10 18:00N 29°58' W 093°11'3 5.4
2018-Jun-10 17:30N 29°56' W 093°09'3 5.5
2018-Jun-10 16:58N 29°56' W 093°06'3 5.5
2018-Jun-10 16:28N 29°56' W 093°03'3 5.5
2018-Jun-10 15:59N 29°56' W 092°60'29 3.8
2018-Jun-10 08:16N 29°53' W 092°26'2 3.5
2018-Jun-10 07:50N 29°53' W 092°25'0 0.2
2018-Jun-10 07:30N 29°53' W 092°25'3 4.0
2018-Jun-10 06:41N 29°51' W 092°22'1 4.9
2018-Jun-10 06:30N 29°51' W 092°21'2 4.9
2018-Jun-10 06:00N 29°50' W 092°18'1 2.6
2018-Jun-10 05:30N 29°49' W 092°17'1 2.8
2018-Jun-10 05:00N 29°48' W 092°16'2 4.2
2018-Jun-10 04:30N 29°48' W 092°14'1 2.2
2018-Jun-10 04:00N 29°47' W 092°12'1 1.4
2018-Jun-10 03:30N 29°47' W 092°12'0 0.9
2018-Jun-10 03:00N 29°47' W 092°11'0 0.0
2018-Jun-10 02:30N 29°47' W 092°11'0 0.0
2018-Jun-10 02:00N 29°47' W 092°11'0 0.0
2018-Jun-10 01:30N 29°47' W 092°11'0 0.0
2018-Jun-10 01:00N 29°47' W 092°11'0 0.0
2018-Jun-10 00:30N 29°47' W 092°11'0 0.0
2018-Jun-10 00:00N 29°47' W 092°11'1 2.1
2018-Jun-09 23:30N 29°47' W 092°10'2 3.9
2018-Jun-09 23:01N 29°47' W 092°08'1 2.8
2018-Jun-09 22:30N 29°48' W 092°06'2 3.5
2018-Jun-09 22:01N 29°48' W 092°04'3 5.4
2018-Jun-09 21:30N 29°49' W 092°02'4 4.5
2018-Jun-09 20:34N 29°51' W 091°57'  
2018-Jun-07 08:33N 31°57' W 091°12'1 9.8
2018-Jun-07 08:29N 31°57' W 091°11'7 7.7
2018-Jun-07 07:37N 32°01' W 091°05'1 8.7
2018-Jun-07 07:30N 32°02' W 091°04'4 7.4
2018-Jun-07 07:00N 32°05' W 091°05'3 4.9
2018-Jun-07 06:28N 32°08' W 091°04'3 7.3
2018-Jun-07 06:00N 32°09' W 091°00'4 8.4
2018-Jun-07 05:30N 32°13' W 090°59'4 8.1
2018-Jun-07 05:00N 32°16' W 090°57'4 8.3
2018-Jun-07 04:30N 32°20' W 090°54'3 5.5
2018-Jun-07 04:00N 32°22' W 090°53'2 4.3
2018-Jun-07 03:30N 32°23' W 090°55'0 0.6
2018-Jun-07 03:00N 32°24' W 090°55'0 0.0
2018-Jun-07 02:26N 32°24' W 090°55'0 0.1
2018-Jun-07 02:00N 32°23' W 090°55'0 0.0
2018-Jun-07 01:30N 32°24' W 090°55'0 0.0
2018-Jun-07 01:00N 32°24' W 090°55'0 0.0
2018-Jun-07 00:30N 32°24' W 090°55'0 0.0
2018-Jun-07 00:00N 32°24' W 090°55'0 0.0
2018-Jun-06 23:30N 32°24' W 090°55'0 0.0
2018-Jun-06 23:00N 32°24' W 090°55'0 0.0
2018-Jun-06 22:30N 32°23' W 090°55'0 0.0
2018-Jun-06 22:00N 32°24' W 090°55'0 0.0
2018-Jun-06 21:30N 32°24' W 090°55'0 0.0
2018-Jun-06 21:00N 32°24' W 090°55'0 0.0
2018-Jun-06 20:30N 32°24' W 090°55'0 0.0
2018-Jun-06 20:00N 32°24' W 090°55'0 0.0
2018-Jun-06 19:30N 32°24' W 090°55'0 0.0
2018-Jun-06 19:00N 32°24' W 090°55'0 0.0
2018-Jun-06 18:30N 32°24' W 090°55'0 0.0
2018-Jun-06 18:00N 32°24' W 090°55'0 0.0
2018-Jun-06 17:30N 32°24' W 090°55'0 0.0
2018-Jun-06 17:00N 32°24' W 090°55'0 0.0
2018-Jun-06 16:24N 32°24' W 090°55'0 0.0
2018-Jun-06 16:00N 32°24' W 090°55'0 0.0
2018-Jun-06 15:30N 32°24' W 090°55'0 0.0
2018-Jun-06 14:58N 32°24' W 090°55'0 0.0
2018-Jun-06 14:30N 32°24' W 090°55'0 0.0
2018-Jun-06 13:58N 32°23' W 090°55'0 0.0
2018-Jun-06 13:30N 32°24' W 090°55'0 0.0
2018-Jun-06 13:00N 32°24' W 090°55'0 0.0
2018-Jun-06 12:30N 32°24' W 090°55'0 0.0
2018-Jun-06 12:00N 32°24' W 090°55'0 0.0
2018-Jun-06 11:30N 32°24' W 090°55'0 0.0
2018-Jun-06 11:00N 32°24' W 090°55'0 0.0
2018-Jun-06 10:30N 32°24' W 090°55'0 0.0
2018-Jun-06 10:00N 32°24' W 090°55'0 0.0
2018-Jun-06 09:30N 32°24' W 090°55'0 0.0
2018-Jun-06 09:00N 32°24' W 090°55'0 0.0
2018-Jun-06 08:30N 32°24' W 090°55'0 0.0
2018-Jun-06 07:55N 32°24' W 090°55'0 0.0
2018-Jun-06 07:30N 32°23' W 090°55'0 0.0
2018-Jun-06 07:00N 32°24' W 090°55'0 0.0
2018-Jun-06 06:30N 32°24' W 090°55'0 0.0
2018-Jun-06 06:00N 32°24' W 090°55'0 0.0
2018-Jun-06 05:30N 32°23' W 090°55'0 0.0
2018-Jun-06 05:00N 32°24' W 090°55'0 0.0
2018-Jun-06 04:30N 32°24' W 090°55'0 0.0
2018-Jun-06 04:00N 32°24' W 090°55'0 0.0
2018-Jun-06 03:30N 32°24' W 090°55'0 0.0
2018-Jun-06 02:58N 32°24' W 090°55'0 0.0
2018-Jun-06 02:30N 32°23' W 090°55'0 0.0
2018-Jun-06 01:59N 32°24' W 090°55'0 0.0
2018-Jun-06 01:30N 32°24' W 090°55'0 0.0
2018-Jun-06 01:00N 32°24' W 090°55'0 0.0
2018-Jun-06 00:28N 32°24' W 090°55'0 0.0
2018-Jun-06 00:00N 32°24' W 090°55'0 0.0
2018-Jun-05 23:30N 32°24' W 090°55'0 0.0
2018-Jun-05 23:00N 32°24' W 090°55'0 0.0
2018-Jun-05 22:30N 32°23' W 090°55'0 0.0
2018-Jun-05 22:00N 32°24' W 090°55'0 0.0
2018-Jun-05 21:30N 32°24' W 090°55'0 0.0
2018-Jun-05 21:00N 32°24' W 090°55'0 0.0
2018-Jun-05 20:30N 32°24' W 090°55'0 0.0
2018-Jun-05 20:00N 32°24' W 090°55'0 0.0
2018-Jun-05 19:30N 32°24' W 090°55'0 0.0
2018-Jun-05 19:00N 32°24' W 090°55'0 0.0
2018-Jun-05 18:30N 32°24' W 090°55'0 0.0
2018-Jun-05 18:00N 32°23' W 090°55'0 0.0
2018-Jun-05 17:30N 32°24' W 090°55'0 0.0
2018-Jun-05 17:00N 32°23' W 090°55'0 0.0
2018-Jun-05 16:30N 32°23' W 090°55'0 0.0
2018-Jun-05 16:00N 32°24' W 090°55'0 0.1
2018-Jun-05 15:30N 32°23' W 090°55'0 0.0
2018-Jun-05 15:00N 32°23' W 090°55'0 0.0
2018-Jun-05 14:30N 32°23' W 090°55'0 0.0
2018-Jun-05 14:00N 32°23' W 090°55'0 0.0
2018-Jun-05 13:30N 32°23' W 090°55'0 0.0
2018-Jun-05 13:00N 32°23' W 090°55'0 0.0
2018-Jun-05 12:30N 32°23' W 090°55'0 0.0
2018-Jun-05 12:00N 32°23' W 090°55'0 0.0
2018-Jun-05 11:30N 32°23' W 090°55'0 0.0
2018-Jun-05 11:00N 32°23' W 090°55'0 0.0
2018-Jun-05 10:30N 32°23' W 090°55'0 0.0
2018-Jun-05 10:00N 32°23' W 090°55'0 0.0
2018-Jun-05 09:30N 32°23' W 090°55'0 0.0
2018-Jun-05 09:00N 32°23' W 090°55'0 0.0
2018-Jun-05 08:30N 32°23' W 090°55'0 0.0
2018-Jun-05 08:00N 32°23' W 090°55'0 0.0
2018-Jun-05 07:30N 32°23' W 090°55'0 0.0
2018-Jun-05 07:00N 32°23' W 090°55'0 0.0
2018-Jun-05 06:30N 32°24' W 090°55'0 0.0
2018-Jun-05 06:00N 32°24' W 090°55'0 0.0
2018-Jun-05 05:30N 32°24' W 090°55'0 0.0
2018-Jun-05 05:00N 32°23' W 090°55'0 0.0
2018-Jun-05 04:30N 32°23' W 090°55'  

Dump ship's entire track history